Terminal Aerodrome Forecast
Issued by NWS

Home | Current Version | Previous Version | Text Only | Print | Product List | Glossary On
Versions: 1 2 3 4 5 6 7 8 9 10 11 12 13 14 15 16 17 18 19 20 21 22 23 24 25 26
000
FTUS41 KBUF 061739
TAFJHW
TAF
KJHW 061739Z 0618/0718 VRB05KT P6SM -SHRA FEW025 BKN120
     FM062000 17007KT P6SM -SHRA SCT025 OVC120
     FM062300 18005KT P6SM VCSH SCT015 OVC060
     FM070300 18005KT P6SM BKN080
     FM071200 20008KT P6SM SCT140
     FM071700 21012KT P6SM VCSH SCT035 BKN100
      AMD LTD TO CLD VIS AND WIND=

USA.gov is the U.S. government's official web portal to all federal, state and local government web resources and services.